Time;durP1;ratioP1;P1;durP2;ratioP2;P2;SDS_P1;SDS_P2;PMS_P1;PMS_P2;Temp;Humidity;BMP_temperature;BMP_pressure;BME280_temperature;BME280_humidity;BME280_pressure;Samples;Min_cycle;Max_cycle;Signal;HPM_P1;HPM_P2
2022/05/01 00:01:44;;;;;;;14.40;12.90;;;11.90;99.90;;;;;;5032813;28;20175;-52
2022/05/01 00:04:10;;;;;;;14.60;13.20;;;11.90;99.90;;;;;;5032190;28;20187;-51
2022/05/01 00:06:36;;;;;;;15.27;13.77;;;11.90;99.90;;;;;;5032683;28;20179;-54
2022/05/01 00:09:03;;;;;;;15.63;14.13;;;11.90;99.90;;;;;;5032660;28;20168;-57
2022/05/01 00:11:30;;;;;;;15.60;14.10;;;11.80;99.90;;;;;;5032709;28;20532;-48
2022/05/01 00:13:57;;;;;;;14.87;13.37;;;11.60;99.90;;;;;;5032142;28;20186;-50
2022/05/01 00:16:23;;;;;;;15.50;14.00;;;11.50;99.90;;;;;;5032433;28;20199;-54
2022/05/01 00:18:48;;;;;;;16.07;14.57;;;11.30;99.90;;;;;;5032396;28;20195;-53
2022/05/01 00:21:14;;;;;;;16.93;15.30;;;11.30;99.90;;;;;;5032591;28;20210;-54
2022/05/01 00:23:39;;;;;;;16.20;14.60;;;11.40;99.90;;;;;;5032172;28;20183;-54
2022/05/01 00:26:06;;;;;;;16.37;14.73;;;13.60;99.90;;;;;;5032384;28;20199;-54
2022/05/01 00:28:33;;;;;;;17.27;15.67;;;13.30;99.90;;;;;;5032336;28;20641;-52
2022/05/01 00:30:59;;;;;;;17.40;15.80;;;11.60;99.90;;;;;;5032178;28;20171;-57
2022/05/01 00:36:27;;;;;;;17.53;15.83;;;11.60;99.90;;;;;;5032256;28;20241;-56
2022/05/01 00:39:07;;;;;;;16.60;15.00;;;11.50;99.90;;;;;;5030962;28;20537;-55
2022/05/01 00:41:35;;;;;;;18.60;16.70;;;11.50;99.90;;;;;;5031045;28;20171;-56
2022/05/01 00:44:12;;;;;;;16.93;15.33;;;13.80;99.90;;;;;;5031986;28;20264;-55
2022/05/01 00:46:45;;;;;;;19.33;17.53;;;11.50;99.90;;;;;;5032118;28;20183;-58
2022/05/01 00:49:14;;;;;;;19.13;17.23;;;11.60;99.90;;;;;;5031967;28;20234;-57
2022/05/01 00:51:58;;;;;;;19.30;17.50;;;11.60;99.90;;;;;;5032049;28;20168;-56
2022/05/01 00:54:30;;;;;;;17.87;16.07;;;11.60;99.90;;;;;;5031586;28;20552;-55
2022/05/01 00:57:00;;;;;;;17.37;15.77;;;11.50;99.90;;;;;;5031968;28;20210;-56
2022/05/01 00:59:26;;;;;;;19.47;17.67;;;12.50;99.90;;;;;;5032023;28;20167;-58
2022/05/01 01:01:52;;;;;;;18.23;16.13;;;11.50;99.90;;;;;;5030901;28;20651;-59
2022/05/01 01:04:18;;;;;;;21.43;19.23;;;11.60;99.90;;;;;;5031463;28;20544;-53
2022/05/01 01:06:44;;;;;;;18.40;16.60;;;11.60;99.90;;;;;;5014178;28;20179;-57
2022/05/01 01:09:11;;;;;;;18.27;16.47;;;11.60;99.90;;;;;;5031876;28;20163;-60
2022/05/01 01:11:38;;;;;;;19.07;17.17;;;11.60;99.90;;;;;;5031893;28;20171;-57
2022/05/01 01:14:05;;;;;;;19.17;15.90;;;11.50;99.90;;;;;;5031466;28;20182;-59
2022/05/01 01:16:35;;;;;;;18.50;16.57;;;11.50;99.90;;;;;;5031674;28;20658;-57
2022/05/01 01:19:06;;;;;;;17.70;16.00;;;11.50;99.90;;;;;;5031784;28;20164;-59
2022/05/01 01:21:32;;;;;;;19.07;17.00;;;11.40;99.90;;;;;;5031791;28;20174;-57
2022/05/01 01:23:59;;;;;;;18.77;16.97;;;13.60;99.90;;;;;;5031331;28;20603;-56
2022/05/01 01:26:25;;;;;;;18.83;16.93;;;11.30;99.90;;;;;;5031757;28;20168;-58
2022/05/01 01:28:54;;;;;;;20.33;18.40;;;11.30;99.90;;;;;;5031645;28;20222;-59
2022/05/01 01:31:41;;;;;;;19.33;17.43;;;11.50;99.90;;;;;;5014002;28;20199;-57
2022/05/01 01:34:11;;;;;;;18.73;16.93;;;11.20;99.90;;;;;;5031272;28;20188;-53
2022/05/01 01:36:38;;;;;;;18.97;17.07;;;11.20;99.90;;;;;;5031693;28;20171;-57
2022/05/01 01:39:05;;;;;;;19.43;17.43;;;11.10;99.90;;;;;;5031572;28;20229;-54
2022/05/01 01:41:31;;;;;;;18.93;17.10;;;11.20;99.90;;;;;;5031619;28;20251;-59
2022/05/01 01:43:58;;;;;;;19.07;17.27;;;11.30;99.90;;;;;;5031150;28;20183;-57
2022/05/01 01:46:25;;;;;;;18.70;16.90;;;11.40;99.90;;;;;;5031476;28;20238;-56
2022/05/01 01:48:51;;;;;;;18.40;16.60;;;11.50;99.90;;;;;;5031469;28;20163;-55
2022/05/01 01:51:17;;;;;;;18.87;16.87;;;11.50;99.90;;;;;;5031503;28;20168;-51
2022/05/01 01:53:43;;;;;;;19.00;17.10;;;11.60;99.90;;;;;;5030987;28;20274;-55
2022/05/01 01:56:09;;;;;;;18.23;16.53;;;11.50;99.90;;;;;;5031275;28;20218;-58
2022/05/01 01:58:36;;;;;;;18.93;17.13;;;13.90;99.90;;;;;;5031425;28;20626;-53
2022/05/01 02:01:02;;;;;;;18.83;16.93;;;11.80;99.90;;;;;;5031334;28;20164;-54
2022/05/01 02:03:28;;;;;;;18.97;16.97;;;11.40;99.90;;;;;;5030967;28;20191;-56
2022/05/01 02:05:54;;;;;;;18.47;16.67;;;11.80;99.90;;;;;;5031337;28;20572;-53
2022/05/01 02:08:19;;;;;;;19.03;17.23;;;11.40;99.90;;;;;;5031308;28;20198;-51
2022/05/01 02:10:47;;;;;;;19.03;17.23;;;11.40;99.90;;;;;;5031511;28;20259;-57
2022/05/01 02:13:13;;;;;;;18.33;16.63;;;11.50;99.90;;;;;;5031592;28;20258;-53
2022/05/01 02:15:40;;;;;;;18.77;17.00;;;11.50;99.90;;;;;;5034560;28;20257;-54
2022/05/01 02:18:06;;;;;;;19.47;17.53;;;11.40;99.90;;;;;;5034789;28;20156;-59
2022/05/01 02:23:20;;;;;;;19.40;17.50;;;11.70;99.90;;;;;;5034440;28;20647;-55
2022/05/01 02:25:46;;;;;;;18.67;16.77;;;11.50;99.90;;;;;;5034523;28;20639;-52
2022/05/01 02:28:11;;;;;;;20.90;18.73;;;11.60;99.90;;;;;;5034756;28;20191;-55
2022/05/01 02:30:38;;;;;;;20.27;18.27;;;11.80;99.90;;;;;;5034419;28;20548;-54
2022/05/01 02:33:06;;;;;;;22.60;20.37;;;11.80;99.90;;;;;;5034222;28;20195;-53
2022/05/01 02:35:32;;;;;;;20.13;18.13;;;11.70;99.90;;;;;;5034204;28;20184;-53
2022/05/01 02:37:58;;;;;;;19.90;17.90;;;11.90;99.90;;;;;;5034441;28;20164;-57
2022/05/01 02:40:24;;;;;;;19.50;17.67;;;11.90;99.90;;;;;;5034415;28;20294;-52
2022/05/01 02:42:49;;;;;;;21.27;19.17;;;11.90;99.90;;;;;;5034063;28;20160;-56
2022/05/01 02:45:15;;;;;;;19.10;17.27;;;11.90;99.90;;;;;;5033976;28;20195;-56
2022/05/01 02:47:41;;;;;;;20.30;18.30;;;12.00;99.90;;;;;;5034183;28;20186;-56
2022/05/01 02:50:08;;;;;;;19.70;17.87;;;12.10;99.90;;;;;;5034180;28;20209;-53
2022/05/01 02:52:33;;;;;;;24.27;21.97;;;12.00;99.90;;;;;;5033969;28;20637;-54
2022/05/01 02:54:59;;;;;;;23.77;21.53;;;12.10;99.90;;;;;;5033831;28;20235;-58
2022/05/01 02:57:24;;;;;;;22.00;19.80;;;13.10;99.90;;;;;;5034114;28;20218;-59
2022/05/01 02:59:50;;;;;;;25.83;23.10;;;12.10;99.90;;;;;;5033980;28;20628;-56
2022/05/01 03:02:15;;;;;;;22.13;19.93;;;12.10;99.90;;;;;;5033671;28;20773;-55
2022/05/01 03:04:41;;;;;;;22.13;19.90;;;12.30;99.90;;;;;;5033722;28;20649;-59
2022/05/01 03:07:12;;;;;;;21.20;19.10;;;12.10;99.90;;;;;;5033917;28;20251;-59
2022/05/01 03:09:38;;;;;;;20.57;18.67;;;12.10;99.90;;;;;;5034022;28;20575;-54
2022/05/01 03:12:05;;;;;;;21.07;19.00;;;12.20;99.90;;;;;;5033849;28;20274;-55
2022/05/01 03:14:31;;;;;;;22.00;19.80;;;12.10;99.90;;;;;;5033416;28;20199;-58
2022/05/01 03:16:56;;;;;;;25.57;22.97;;;12.10;99.90;;;;;;5033637;28;20692;-56
2022/05/01 03:22:16;;;;;;;21.80;19.70;;;;;;;;;;5033670;28;20174;-58
2022/05/01 03:24:42;;;;;;;26.37;23.73;;;12.10;99.90;;;;;;5028159;28;20191;-61
2022/05/01 03:27:09;;;;;;;26.80;24.20;;;12.10;99.90;;;;;;5033348;28;20183;-57
2022/05/01 03:29:35;;;;;;;25.87;23.17;;;12.10;99.90;;;;;;5033445;28;20172;-58
2022/05/01 03:32:01;;;;;;;26.97;24.17;;;12.00;99.90;;;;;;5033316;28;20516;-57
2022/05/01 03:34:27;;;;;;;23.63;21.33;;;12.00;99.90;;;;;;5032927;28;20742;-56
2022/05/01 03:36:55;;;;;;;25.00;22.40;;;11.90;99.90;;;;;;5033328;28;20254;-60
2022/05/01 03:39:21;;;;;;;22.43;20.23;;;11.90;99.90;;;;;;5033306;28;20242;-59
2022/05/01 03:41:47;;;;;;;21.93;19.83;;;12.00;99.90;;;;;;5033311;28;20228;-60
2022/05/01 03:44:13;;;;;;;22.20;20.00;;;11.90;99.90;;;;;;5032776;28;20188;-57
2022/05/01 03:46:39;;;;;;;22.13;19.93;;;11.90;99.90;;;;;;5033122;28;20536;-57
2022/05/01 03:49:06;;;;;;;25.37;22.77;;;12.00;99.90;;;;;;5033175;28;20176;-53
2022/05/01 03:51:32;;;;;;;26.37;23.77;;;;;;;;;;5033243;28;20585;-59
2022/05/01 03:54:02;;;;;;;22.10;19.90;;;12.00;99.90;;;;;;5032562;28;20262;-56
2022/05/01 03:56:29;;;;;;;23.43;21.13;;;12.10;99.90;;;;;;5032817;28;20306;-54
2022/05/01 03:58:55;;;;;;;23.40;20.97;;;13.00;99.90;;;;;;5032898;28;20195;-54
2022/05/01 04:01:21;;;;;;;23.90;21.57;;;12.20;99.90;;;;;;5032828;28;20168;-52
2022/05/01 04:03:46;;;;;;;22.77;20.43;;;12.10;99.90;;;;;;5032365;28;20218;-56
2022/05/01 04:06:12;;;;;;;21.17;19.10;;;12.20;99.90;;;;;;5032832;28;20199;-57
2022/05/01 04:08:38;;;;;;;22.70;20.50;;;12.20;99.90;;;;;;5032835;28;20740;-57
2022/05/01 04:11:04;;;;;;;20.33;18.43;;;12.20;99.90;;;;;;5032786;28;20289;-55
2022/05/01 04:13:30;;;;;;;20.13;18.23;;;12.00;99.90;;;;;;5032168;28;20644;-55
2022/05/01 04:15:56;;;;;;;20.33;18.33;;;12.20;99.90;;;;;;5032478;28;20195;-54
2022/05/01 04:18:21;;;;;;;19.93;18.03;;;12.20;99.90;;;;;;5032552;28;20647;-59
2022/05/01 04:20:47;;;;;;;20.00;18.10;;;12.20;99.90;;;;;;5032583;28;20663;-57
2022/05/01 04:23:13;;;;;;;23.60;21.20;;;12.40;99.90;;;;;;5014567;28;20186;-51
2022/05/01 04:25:39;;;;;;;19.77;17.87;;;12.30;99.90;;;;;;5032362;28;20196;-58
2022/05/01 04:28:10;;;;;;;18.33;16.37;;;12.20;99.90;;;;;;5032344;28;20172;-56
2022/05/01 04:30:37;;;;;;;19.27;17.37;;;12.20;99.90;;;;;;5032310;28;20183;-55
2022/05/01 04:33:06;;;;;;;18.23;16.47;;;12.20;99.90;;;;;;5032135;28;20636;-60
2022/05/01 04:35:40;;;;;;;17.67;15.97;;;12.20;99.90;;;;;;5032076;28;20199;-57
2022/05/01 04:38:15;;;;;;;16.70;15.20;;;12.40;99.90;;;;;;5032262;28;20167;-57
2022/05/01 04:40:49;;;;;;;18.07;16.47;;;12.00;99.90;;;;;;5032203;28;20163;-58
2022/05/01 04:43:19;;;;;;;17.60;16.00;;;12.00;99.90;;;;;;5031867;28;20167;-58
2022/05/01 04:45:50;;;;;;;17.80;16.10;;;11.90;99.90;;;;;;5031978;28;20171;-55
2022/05/01 04:48:17;;;;;;;17.10;15.53;;;11.90;99.90;;;;;;5032154;28;20168;-53
2022/05/01 04:50:44;;;;;;;16.37;14.87;;;11.80;99.90;;;;;;5032013;28;20178;-58
2022/05/01 04:53:11;;;;;;;17.30;15.70;;;12.00;99.90;;;;;;5031784;28;20199;-56
2022/05/01 04:55:41;;;;;;;18.70;16.80;;;12.00;99.90;;;;;;5031784;28;20215;-58
2022/05/01 04:58:09;;;;;;;19.03;17.20;;;12.00;99.90;;;;;;5032109;28;20198;-54
2022/05/01 05:00:35;;;;;;;18.10;16.40;;;;;;;;;;5032014;28;20178;-59
2022/05/01 05:03:02;;;;;;;17.83;16.20;;;12.10;99.90;;;;;;5031786;28;20218;-57
2022/05/01 05:05:29;;;;;;;17.07;15.47;;;12.20;99.90;;;;;;5031772;28;20207;-54
2022/05/01 05:07:55;;;;;;;17.70;16.07;;;12.20;99.90;;;;;;5031927;28;20172;-56
2022/05/01 05:10:21;;;;;;;20.67;18.73;;;12.30;99.90;;;;;;5031877;28;20171;-56
2022/05/01 05:12:48;;;;;;;18.93;17.13;;;12.30;99.90;;;;;;5031545;28;20178;-56
2022/05/01 05:15:16;;;;;;;19.10;17.30;;;12.40;99.90;;;;;;5031672;28;20317;-54
2022/05/01 05:17:43;;;;;;;18.90;17.20;;;12.40;99.90;;;;;;5031730;28;20179;-55
2022/05/01 05:20:11;;;;;;;18.20;16.50;;;12.30;99.90;;;;;;5031703;28;20171;-56
2022/05/01 05:22:36;;;;;;;17.63;15.93;;;12.10;99.90;;;;;;5026853;28;20179;-52
2022/05/01 05:25:04;;;;;;;17.33;15.73;;;12.30;99.90;;;;;;5022616;28;20802;-54
2022/05/01 05:27:29;;;;;;;16.70;15.00;;;12.20;99.90;;;;;;5011858;28;20259;-52
2022/05/01 05:29:56;;;;;;;17.33;15.73;;;12.20;99.90;;;;;;5027536;28;20258;-54
2022/05/01 05:32:23;;;;;;;16.83;15.23;;;12.30;99.90;;;;;;5031156;28;20795;-57
2022/05/01 05:34:49;;;;;;;17.00;15.43;;;12.30;99.90;;;;;;5031439;28;20219;-53
2022/05/01 05:37:16;;;;;;;17.33;15.73;;;12.40;99.90;;;;;;5013947;28;20176;-55
2022/05/01 05:39:42;;;;;;;17.30;15.70;;;12.40;99.90;;;;;;5008398;28;20703;-51
2022/05/01 05:42:07;;;;;;;17.20;15.60;;;12.40;99.90;;;;;;5011465;28;20173;-53
2022/05/01 05:44:33;;;;;;;18.47;16.77;;;12.40;99.90;;;;;;5011419;28;20192;-55
2022/05/01 05:46:59;;;;;;;19.70;17.80;;;12.50;99.90;;;;;;5011656;28;20169;-51
2022/05/01 05:49:24;;;;;;;19.00;17.20;;;12.60;99.90;;;;;;5014233;28;20190;-56
2022/05/01 05:51:50;;;;;;;18.93;17.13;;;12.70;99.90;;;;;;5015576;28;20175;-52
2022/05/01 05:54:15;;;;;;;20.57;18.57;;;12.60;99.90;;;;;;4997436;28;20287;-52
2022/05/01 05:56:41;;;;;;;16.57;15.07;;;12.70;99.90;;;;;;5093409;23;20223;-60
2022/05/01 05:59:07;;;;;;;16.20;14.70;;;12.50;99.90;;;;;;5021706;28;20165;-63
2022/05/01 06:01:32;;;;;;;16.13;14.60;;;12.60;99.90;;;;;;5030190;28;20160;-63
2022/05/01 06:03:58;;;;;;;14.93;13.60;;;12.60;99.90;;;;;;5034317;28;20397;-62
2022/05/01 06:06:24;;;;;;;14.17;12.97;;;12.70;99.90;;;;;;5037534;28;20223;-61
2022/05/01 06:08:49;;;;;;;15.30;13.90;;;12.80;99.90;;;;;;5054708;28;20175;-61
2022/05/01 06:11:15;;;;;;;19.23;17.43;;;13.10;99.90;;;;;;5036816;28;20167;-60
2022/05/01 06:13:40;;;;;;;19.40;17.60;;;13.00;99.90;;;;;;5031893;28;20191;-62
2022/05/01 06:16:06;;;;;;;17.63;15.87;;;12.90;99.90;;;;;;5053104;28;20297;-62
2022/05/01 06:18:31;;;;;;;15.83;14.33;;;13.00;99.90;;;;;;5054692;28;20229;-62
2022/05/01 06:20:57;;;;;;;15.27;13.67;;;13.30;99.90;;;;;;5054467;28;20620;-61
2022/05/01 06:23:23;;;;;;;17.73;16.13;;;13.50;99.90;;;;;;5054235;28;20159;-60
2022/05/01 06:25:49;;;;;;;16.97;15.33;;;12.90;99.90;;;;;;5054305;28;20165;-60
2022/05/01 06:28:15;;;;;;;15.87;14.37;;;13.20;99.90;;;;;;5054486;28;20195;-61
2022/05/01 06:30:51;;;;;;;14.90;13.50;;;13.40;99.90;;;;;;5050334;28;20214;-61
2022/05/01 06:33:20;;;;;;;15.03;13.63;;;13.50;99.90;;;;;;5046254;28;20636;-62
2022/05/01 06:35:50;;;;;;;14.60;13.20;;;13.50;99.90;;;;;;5054067;28;20666;-58
2022/05/01 06:38:16;;;;;;;15.43;14.03;;;13.60;99.90;;;;;;5054565;28;20238;-61
2022/05/01 06:40:46;;;;;;;15.63;14.13;;;13.70;99.90;;;;;;5054155;28;20608;-62
2022/05/01 06:43:12;;;;;;;15.83;14.33;;;13.80;99.90;;;;;;5053933;28;20798;-62
2022/05/01 06:45:37;;;;;;;15.47;14.07;;;14.00;99.90;;;;;;5054149;28;20205;-61
2022/05/01 06:48:03;;;;;;;17.00;15.50;;;13.70;99.90;;;;;;5054000;28;20224;-62
2022/05/01 06:50:31;;;;;;;15.63;14.20;;;13.60;99.90;;;;;;5054139;28;20187;-62
2022/05/01 06:52:57;;;;;;;15.27;13.87;;;13.80;99.90;;;;;;5053683;28;20624;-62
2022/05/01 06:55:25;;;;;;;15.83;14.43;;;13.80;99.90;;;;;;5035960;28;20225;-62
2022/05/01 06:57:52;;;;;;;16.30;14.77;;;14.00;99.90;;;;;;5053828;28;20218;-61
2022/05/01 07:00:18;;;;;;;16.17;14.60;;;14.00;99.90;;;;;;5052705;28;20160;-62
2022/05/01 07:02:45;;;;;;;16.33;14.83;;;13.90;99.90;;;;;;5053599;28;20534;-61
2022/05/01 07:05:10;;;;;;;15.10;13.70;;;13.60;99.90;;;;;;5049591;28;20298;-62
2022/05/01 07:07:36;;;;;;;16.80;15.00;;;13.60;99.90;;;;;;5053542;28;20196;-62
2022/05/01 07:10:01;;;;;;;19.37;17.60;;;13.60;99.90;;;;;;5053547;28;20183;-60
2022/05/01 07:12:27;;;;;;;16.23;14.70;;;13.60;99.90;;;;;;5053443;28;20168;-62
2022/05/01 07:14:53;;;;;;;17.13;15.53;;;13.90;99.90;;;;;;5053438;28;20200;-62
2022/05/01 07:17:18;;;;;;;15.33;13.83;;;14.00;99.90;;;;;;5053526;28;20214;-62
2022/05/01 07:19:44;;;;;;;15.70;14.30;;;13.90;99.90;;;;;;5053681;28;20168;-61
2022/05/01 07:22:13;;;;;;;14.57;13.27;;;14.00;99.90;;;;;;5053429;28;20628;-62
2022/05/01 07:24:40;;;;;;;14.87;13.57;;;13.90;99.90;;;;;;5053441;28;20293;-62
2022/05/01 07:27:05;;;;;;;16.73;15.23;;;14.00;99.90;;;;;;5053248;28;20262;-62
2022/05/01 07:29:31;;;;;;;16.40;14.90;;;13.90;99.90;;;;;;5053397;28;20179;-62
2022/05/01 07:31:56;;;;;;;27.13;24.40;;;13.90;99.90;;;;;;5053160;28;20179;-62
2022/05/01 07:34:22;;;;;;;16.33;14.83;;;13.90;99.90;;;;;;5052976;28;20263;-62
2022/05/01 07:36:48;;;;;;;13.93;12.70;;;13.60;99.90;;;;;;5053127;28;20185;-62
2022/05/01 07:39:14;;;;;;;12.77;11.60;;;14.60;99.90;;;;;;5053134;28;20171;-60
2022/05/01 07:41:41;;;;;;;14.37;13.07;;;14.40;99.90;;;;;;5053197;28;20173;-62
2022/05/01 07:44:08;;;;;;;12.83;11.67;;;13.90;99.90;;;;;;5052899;28;20595;-62
2022/05/01 07:46:34;;;;;;;12.57;11.47;;;14.40;99.90;;;;;;5052958;28;20274;-61
2022/05/01 07:49:00;;;;;;;12.33;11.23;;;14.70;99.90;;;;;;5052841;28;20182;-61
2022/05/01 07:51:26;;;;;;;12.00;10.80;;;;;;;;;;5052963;28;20184;-62
2022/05/01 07:53:53;;;;;;;12.37;11.27;;;;;;;;;;5052489;28;20539;-62
2022/05/01 07:56:19;;;;;;;12.93;11.73;;;14.40;99.90;;;;;;5052534;28;20756;-61
2022/05/01 07:58:45;;;;;;;13.00;11.80;;;15.20;99.90;;;;;;5052795;28;20167;-62
2022/05/01 08:01:11;;;;;;;13.97;12.77;;;;;;;;;;5052469;28;20642;-61
2022/05/01 08:06:22;;;;;;;13.13;12.00;;;15.60;99.90;;;;;;5052719;28;20202;-62
2022/05/01 08:08:48;;;;;;;13.70;12.40;;;15.60;99.90;;;;;;5052461;28;20174;-62
2022/05/01 08:11:14;;;;;;;13.17;11.97;;;15.20;99.90;;;;;;5052276;28;20624;-62
2022/05/01 08:13:40;;;;;;;38.47;25.33;;;15.50;99.90;;;;;;5050165;28;20197;-61
2022/05/01 08:16:06;;;;;;;45.93;32.83;;;;;;;;;;5052140;28;20202;-61
2022/05/01 08:21:17;;;;;;;12.60;11.40;;;;;;;;;;5032463;28;20667;-60
2022/05/01 08:23:43;;;;;;;12.90;11.57;;;15.70;99.90;;;;;;5014413;28;20164;-60
2022/05/01 08:26:10;;;;;;;12.10;11.00;;;15.70;99.90;;;;;;5032290;28;20624;-62
2022/05/01 08:28:38;;;;;;;12.30;11.20;;;15.70;99.90;;;;;;5014563;28;20179;-61
2022/05/01 08:31:05;;;;;;;12.40;11.30;;;15.70;99.90;;;;;;5032381;28;20240;-62
2022/05/01 08:33:31;;;;;;;12.37;11.27;;;15.70;99.90;;;;;;5032076;28;20168;-61
2022/05/01 08:35:57;;;;;;;12.23;11.13;;;15.50;99.90;;;;;;5032006;28;20199;-62
2022/05/01 08:38:23;;;;;;;12.33;11.17;;;15.50;99.90;;;;;;5032271;28;20171;-64
2022/05/01 08:40:50;;;;;;;12.70;11.50;;;15.30;99.90;;;;;;5032226;28;20884;-59
2022/05/01 08:43:20;;;;;;;12.13;11.03;;;15.30;99.90;;;;;;5031974;28;20272;-60
2022/05/01 08:46:04;;;;;;;13.20;12.00;;;15.30;99.90;;;;;;5032229;28;20192;-60
2022/05/01 08:48:34;;;;;;;13.57;12.27;;;15.30;99.90;;;;;;5032157;28;20168;-60
2022/05/01 08:51:01;;;;;;;14.23;12.93;;;15.30;99.90;;;;;;5031890;28;20199;-60
2022/05/01 08:53:29;;;;;;;14.07;12.67;;;15.70;99.90;;;;;;5031716;28;20183;-61
2022/05/01 08:55:56;;;;;;;13.23;11.93;;;15.00;99.90;;;;;;5031774;28;20197;-59
2022/05/01 08:58:23;;;;;;;13.17;11.87;;;14.80;99.90;;;;;;5031823;28;20221;-60
2022/05/01 09:00:51;;;;;;;13.80;12.60;;;14.70;99.90;;;;;;5031998;28;20520;-58
2022/05/01 09:03:17;;;;;;;13.80;12.50;;;14.60;99.90;;;;;;5031645;28;20531;-57
2022/05/01 09:05:43;;;;;;;13.27;12.03;;;15.10;99.90;;;;;;5031767;28;20190;-61
2022/05/01 09:08:09;;;;;;;12.83;11.73;;;16.00;99.90;;;;;;5031772;28;20664;-61
2022/05/01 09:10:35;;;;;;;13.23;12.13;;;15.10;99.90;;;;;;5031931;28;20171;-59
2022/05/01 09:13:01;;;;;;;11.80;10.80;;;15.30;99.90;;;;;;5013929;28;20525;-61
2022/05/01 09:15:33;;;;;;;11.90;10.90;;;15.40;99.90;;;;;;5031660;28;20183;-61
2022/05/01 09:18:08;;;;;;;11.67;10.67;;;15.70;99.90;;;;;;5031706;28;20195;-61
2022/05/01 09:20:36;;;;;;;11.73;10.73;;;15.80;99.90;;;;;;5031811;28;20170;-62
2022/05/01 09:23:02;;;;;;;11.30;10.30;;;16.10;99.90;;;;;;5031698;28;20247;-62
2022/05/01 09:25:29;;;;;;;12.33;11.23;;;15.80;99.90;;;;;;5035793;28;20172;-62
2022/05/01 09:28:02;;;;;;;10.77;9.77;;;16.00;99.90;;;;;;5038288;28;20194;-61
2022/05/01 09:30:38;;;;;;;12.37;11.17;;;16.60;99.90;;;;;;5044385;28;20576;-62
2022/05/01 09:33:04;;;;;;;11.47;10.47;;;16.70;99.90;;;;;;5044067;28;20198;-62
2022/05/01 09:35:35;;;;;;;11.27;10.27;;;16.60;99.90;;;;;;5045657;28;20197;-60
2022/05/01 09:38:22;;;;;;;9.40;8.60;;;16.60;99.90;;;;;;5045827;28;20192;-61
2022/05/01 09:40:49;;;;;;;11.27;10.27;;;16.90;99.90;;;;;;5042277;28;20165;-62
2022/05/01 09:43:38;;;;;;;10.27;9.30;;;17.40;99.90;;;;;;5044945;28;20185;-61
2022/05/01 09:46:19;;;;;;;10.47;9.50;;;18.50;99.90;;;;;;5046566;28;20173;-61
2022/05/01 09:48:58;;;;;;;9.70;8.80;;;18.30;99.90;;;;;;5039781;28;20250;-61
2022/05/01 09:51:24;;;;;;;10.70;9.73;;;18.30;99.90;;;;;;5046506;28;20163;-61
2022/05/01 09:53:50;;;;;;;9.30;8.50;;;18.40;99.90;;;;;;5044234;28;20190;-60
2022/05/01 09:56:15;;;;;;;11.50;10.30;;;18.40;99.90;;;;;;5043208;28;20571;-61
2022/05/01 09:58:43;;;;;;;10.70;9.77;;;18.50;99.90;;;;;;5047453;28;20668;-60
2022/05/01 10:01:13;;;;;;;10.27;9.37;;;18.60;99.90;;;;;;5044999;28;20175;-61
2022/05/01 10:03:42;;;;;;;9.23;8.43;;;18.60;99.90;;;;;;5045093;28;20258;-61
2022/05/01 10:06:11;;;;;;;9.87;9.07;;;18.60;99.90;;;;;;5044593;28;20203;-60
2022/05/01 10:08:38;;;;;;;11.20;10.20;;;18.80;99.90;;;;;;5043911;28;20245;-60
2022/05/01 10:11:05;;;;;;;10.37;9.47;;;18.70;99.90;;;;;;5044045;28;20176;-58
2022/05/01 10:13:32;;;;;;;10.33;9.53;;;18.70;99.90;;;;;;5043600;28;20201;-60
2022/05/01 10:15:59;;;;;;;11.73;10.73;;;17.40;99.90;;;;;;5045610;28;20210;-58
2022/05/01 10:18:25;;;;;;;11.33;10.33;;;16.90;99.90;;;;;;5011762;28;20200;-60
2022/05/01 10:20:51;;;;;;;11.37;10.37;;;17.00;99.90;;;;;;5042447;28;20795;-61
2022/05/01 10:23:17;;;;;;;11.30;10.30;;;16.90;99.90;;;;;;5046033;28;20557;-59
2022/05/01 10:25:55;;;;;;;11.47;10.37;;;16.70;99.90;;;;;;5044804;28;20229;-60
2022/05/01 10:28:58;;;;;;;11.20;10.10;;;17.10;99.90;;;;;;5025169;28;20193;-60
2022/05/01 10:35:04;;;;;;;12.27;11.17;;;16.90;99.90;;;;;;5042602;28;20193;-60
2022/05/01 10:37:48;;;;;;;12.10;11.10;;;16.90;99.90;;;;;;5043001;28;20183;-59
2022/05/01 10:40:14;;;;;;;12.23;11.17;;;16.70;99.90;;;;;;5042156;28;20640;-60
2022/05/01 10:42:46;;;;;;;10.90;10.00;;;16.60;99.90;;;;;;5046488;28;20171;-61
2022/05/01 10:45:23;;;;;;;11.17;10.17;;;16.60;99.90;;;;;;5052498;28;20674;-60
2022/05/01 10:47:53;;;;;;;10.20;9.30;;;16.70;99.90;;;;;;5047822;28;20194;-58
2022/05/01 10:50:22;;;;;;;12.80;11.67;;;16.50;99.90;;;;;;5047646;28;20184;-60
2022/05/01 10:53:04;;;;;;;11.33;10.30;;;16.30;99.90;;;;;;5048170;28;20176;-57
2022/05/01 10:55:47;;;;;;;11.60;10.57;;;16.10;99.90;;;;;;5034791;28;20289;-59
2022/05/01 10:58:23;;;;;;;11.37;10.37;;;16.30;99.90;;;;;;5034652;28;20780;-59
2022/05/01 11:00:50;;;;;;;12.00;10.90;;;16.50;99.90;;;;;;5033967;28;20184;-59
2022/05/01 11:03:27;;;;;;;11.83;10.83;;;16.50;99.90;;;;;;5033598;28;20194;-60
2022/05/01 11:06:13;;;;;;;11.67;10.60;;;16.30;99.90;;;;;;5033893;28;20620;-60
2022/05/01 11:08:40;;;;;;;10.80;9.90;;;16.60;99.90;;;;;;5033234;28;20188;-60
2022/05/01 11:11:10;;;;;;;10.33;9.43;;;16.70;99.90;;;;;;5033863;28;20226;-60
2022/05/01 11:13:37;;;;;;;10.43;9.53;;;16.80;99.90;;;;;;5033340;28;20172;-60
2022/05/01 11:16:06;;;;;;;11.43;10.33;;;17.00;99.90;;;;;;5033618;28;20231;-60
2022/05/01 11:18:41;;;;;;;11.10;10.00;;;16.80;99.90;;;;;;5033689;28;20176;-60
2022/05/01 11:21:21;;;;;;;11.17;10.17;;;17.00;99.90;;;;;;5033529;28;20190;-60
2022/05/01 11:23:58;;;;;;;10.67;9.67;;;16.90;99.90;;;;;;5033242;28;20187;-58
2022/05/01 11:26:24;;;;;;;10.27;9.33;;;16.70;99.90;;;;;;5033736;28;20185;-60
2022/05/01 11:28:52;;;;;;;10.50;9.57;;;16.70;99.90;;;;;;5033511;28;20175;-59
2022/05/01 11:31:36;;;;;;;10.90;10.00;;;16.60;99.90;;;;;;5033444;28;20196;-60
2022/05/01 11:34:25;;;;;;;10.60;9.67;;;16.70;99.90;;;;;;5032877;28;20644;-60
2022/05/01 11:36:54;;;;;;;10.87;9.87;;;16.60;99.90;;;;;;5022609;28;20235;-59
2022/05/01 11:39:21;;;;;;;10.43;9.53;;;16.90;99.90;;;;;;5033246;28;20276;-60
2022/05/01 11:41:57;;;;;;;11.13;10.23;;;17.10;99.90;;;;;;5033123;28;20186;-61
2022/05/01 11:44:24;;;;;;;11.20;10.20;;;17.30;99.90;;;;;;5032817;28;20647;-59
2022/05/01 11:46:51;;;;;;;10.67;9.77;;;17.20;99.90;;;;;;5032368;28;20191;-58
2022/05/01 11:49:17;;;;;;;11.13;10.13;;;17.30;99.90;;;;;;5033069;28;20636;-60
2022/05/01 11:51:47;;;;;;;11.30;10.30;;;17.60;99.90;;;;;;5033044;28;20172;-59
2022/05/01 11:54:15;;;;;;;11.40;10.40;;;17.60;99.90;;;;;;5032521;28;20186;-59
2022/05/01 12:02:26;;;;;;;9.77;8.97;;;17.60;99.90;;;;;;4992699;28;20180;-55
2022/05/01 12:04:58;;;;;;;10.60;9.70;;;17.70;99.90;;;;;;4993126;28;20172;-55
2022/05/01 12:07:24;;;;;;;10.37;9.47;;;17.90;99.90;;;;;;4993153;28;20608;-57
2022/05/01 12:09:55;;;;;;;11.20;10.20;;;18.00;99.90;;;;;;4993138;28;20178;-55
2022/05/01 12:12:26;;;;;;;10.27;9.27;;;18.20;99.90;;;;;;4992981;28;20173;-57
2022/05/01 12:14:51;;;;;;;10.33;9.43;;;18.20;99.90;;;;;;4992791;28;20205;-57
2022/05/01 12:17:21;;;;;;;10.37;9.47;;;18.30;99.90;;;;;;4992730;28;20203;-56
2022/05/01 12:19:49;;;;;;;9.80;8.90;;;18.20;99.90;;;;;;4993077;28;20257;-57
2022/05/01 12:22:19;;;;;;;9.70;8.87;;;18.10;99.90;;;;;;4992647;28;20170;-54
2022/05/01 12:24:47;;;;;;;9.10;8.17;;;18.10;99.90;;;;;;4992973;28;20257;-57
2022/05/01 12:27:14;;;;;;;9.83;9.03;;;18.20;99.90;;;;;;4992787;28;20204;-56
2022/05/01 12:29:47;;;;;;;9.80;8.90;;;18.80;99.90;;;;;;4992901;28;20161;-51
2022/05/01 12:32:14;;;;;;;7.90;7.20;;;19.10;99.90;;;;;;4992527;28;20177;-57
2022/05/01 12:35:01;;;;;;;9.33;8.53;;;19.70;99.90;;;;;;4992505;28;20713;-53
2022/05/01 12:37:32;;;;;;;9.17;8.37;;;19.60;99.90;;;;;;4992687;28;20199;-56
2022/05/01 12:40:12;;;;;;;9.30;8.50;;;19.40;99.90;;;;;;4992789;28;20181;-57
2022/05/01 12:45:45;;;;;;;8.53;7.83;;;19.90;99.90;;;;;;4993044;28;20204;-57
2022/05/01 12:48:13;;;;;;;9.13;8.32;;;20.10;99.90;;;;;;4992622;28;20189;-57
2022/05/01 12:50:40;;;;;;;8.32;7.50;;;21.30;99.90;;;;;;4992738;28;20175;-57
2022/05/01 12:53:29;;;;;;;9.35;8.55;;;20.70;99.90;;;;;;4974827;28;20179;-56
2022/05/01 12:56:02;;;;;;;9.30;8.50;;;20.60;99.90;;;;;;4992520;28;20354;-56
2022/05/01 12:58:33;;;;;;;7.93;7.22;;;20.40;99.90;;;;;;4992371;28;20204;-54
2022/05/01 13:01:02;;;;;;;8.70;7.80;;;20.70;99.90;;;;;;4992479;28;20182;-58
2022/05/01 13:03:33;;;;;;;8.15;7.45;;;20.40;99.90;;;;;;4992224;28;20622;-57